Accueil
METAR-TAF:

METAR-TAF

Aéroports :

Base aérienne 113 Saint-Dizier-Robinson

Saint-Dizier, France

latitude: 48-38N, longitude: 004-54E, altitude: 139 m

Observation

Le bulletin a été fait il y a 20 minutes, à 11:00 UTC
Vent 6 kt de ouest, variant entre sud-ouest et ouest/nord-ouest
Température 10°C
Humidité 71%
Pression 1018 hPa
Visibilité 10 km ou plus
pas de nuages en-dessous de 1500 mètres et pas de cumulonimbus.

METAR: LFSI 031100Z AUTO 27006KT 230V300 CAVOK 10/05 Q1018

Heure: 13:20 (11:20 UTC)

Prévision

Le bulletin a été fait il y a 3 heures et 20 minutes, à 08:00 UTC
Prévision valable du 03 à 09 UTC au 04 à 09 UTC
Vent 5 kt de sud-ouest
Visibilité 10 km ou plus
Nuages fragmentés à une hauteur de 1500 ft
Nuages fragmentés à une hauteur de 3000 ft
Temporairement
du 04 à 01 UTC au 04 à 08 UTC
Visibilité: 3000 m
brume

TAF: LFSI 030800Z 0309/0409 23005KT 9999 BKN015 BKN030 TEMPO 0401/0408 3000 BR

Observations et prévisions météorologiques de plus de 4000 aéroports (messages METAR et TAF).

Les stations disponibles sont représentées par des disques jaunes et rouges sur la carte.

Passer la souris dessus pour voir le nom de la station.

Cliquer dessus pour voir les observations et prévisions météorologiques.

Pour changer de carte: cliquez sur les boutons verts avec une croix noire pour zoomer, sur le bouton vert avec un tiret pour effectuer un zoom arrière, ou sur les flèches vertes pour les cartes adjacentes.


METAR-TAF: